Time,TemperatureC,DewpointC,PressurehPa,WindDirection,WindDirectionDegrees,WindSpeedKMH,WindSpeedGustKMH,Humidity,HourlyPrecipMM,Conditions,Clouds,dailyrainMM,SolarRadiationWatts/m^2,UVIndex,SoftwareType,DateUTC
2020-08-04 00:04:22,14.3,12.4,1010.2,NNE,15,4,4.6,65.7,0.0,,,0.0,0,0,n/a,2020-08-03T22:04:22Z
2020-08-04 00:13:17,13.6,12.3,1010.2,NNW,337,3.3,3.3,65.3,0.0,,,0.0,0,0,n/a,2020-08-03T22:13:17Z
2020-08-04 00:16:17,13.9,12.4,1010.2,North,0,0,0,65.5,0.0,,,0.0,0,0,n/a,2020-08-03T22:16:17Z
2020-08-04 00:22:17,13.6,12.3,1010.2,NNW,337,0.6,0.7,65.8,0.0,,,0.0,0,0,n/a,2020-08-03T22:22:17Z
2020-08-04 00:28:17,13.8,12.3,1010.2,NNW,337,0,0,65.9,0.0,,,0.0,0,0,n/a,2020-08-03T22:28:17Z
2020-08-04 00:34:23,13.6,12.3,1010.2,NNW,347,2,3.3,65.9,0.0,,,0.0,0,0,n/a,2020-08-03T22:34:23Z
2020-08-04 00:49:17,13.2,12.3,1010.4,North,0,0,0,66.8,0.0,,,0.0,0,0,n/a,2020-08-03T22:49:17Z
2020-08-04 00:55:17,12.8,12.4,1010.2,NNE,22,0,0,67.8,0.0,,,0.0,2,0,n/a,2020-08-03T22:55:17Z
2020-08-04 01:04:22,12.8,12.2,1010.4,NNE,22,0,0,68,0.0,,,0.0,0,0,n/a,2020-08-03T23:04:22Z
2020-08-04 01:07:17,13,12,1010.4,NNE,22,0,0,68,0.0,,,0.0,0,0,n/a,2020-08-03T23:07:17Z
2020-08-04 01:10:17,12.6,12,1010.2,North,0,0,0,68.1,0.0,,,0.0,0,0,n/a,2020-08-03T23:10:17Z
2020-08-04 01:16:17,12.4,12.1,1010.4,NNE,22,0,0,68.5,0.0,,,0.0,0,0,n/a,2020-08-03T23:16:17Z
2020-08-04 01:22:17,12.1,11.9,1010.2,NNE,22,0,0,68.6,0.0,,,0.0,0,0,n/a,2020-08-03T23:22:17Z
2020-08-04 01:28:17,12.3,11.9,1010.4,NNW,337,1.6,3.3,68.9,0.0,,,0.0,0,0,n/a,2020-08-03T23:28:17Z
2020-08-04 01:34:22,12.2,11.8,1010.4,NNW,337,0,0,69,0.0,,,0.0,0,0,n/a,2020-08-03T23:34:22Z
2020-08-04 01:49:17,12.3,11.9,1010.4,North,357,2.9,3.3,70,0.0,,,0.0,0,0,n/a,2020-08-03T23:49:17Z
2020-08-04 02:04:21,12.4,11.9,1010.2,NNE,22,3.5,3.9,71.2,0.0,,,0.0,0,0,n/a,2020-08-04T00:04:21Z
2020-08-04 02:07:17,12.5,11.8,1010.2,NNE,22,2.5,2.6,71.2,0.0,,,0.0,0,0,n/a,2020-08-04T00:07:17Z
2020-08-04 02:13:17,12.7,11.7,1010.2,North,0,0,0,70.8,0.0,,,0.0,0,0,n/a,2020-08-04T00:13:17Z
2020-08-04 02:19:17,12.8,11.7,1010.2,NNW,337,0,0,70.4,0.0,,,0.0,2,0,n/a,2020-08-04T00:19:17Z
2020-08-04 02:22:17,12.7,11.7,1010.2,NNE,22,0,0,70.2,0.0,,,0.0,0,0,n/a,2020-08-04T00:22:17Z
2020-08-04 02:28:17,12.3,11.8,1010.2,North,0,0,0,70.4,0.0,,,0.0,2,0,n/a,2020-08-04T00:28:17Z
2020-08-04 02:34:22,12.8,11.7,1010.2,NE,45,0,0,70.3,0.0,,,0.0,0,0,n/a,2020-08-04T00:34:22Z
2020-08-04 02:37:17,12.4,11.7,1010.2,North,0,1.3,1.3,70.4,0.0,,,0.0,0,0,n/a,2020-08-04T00:37:17Z
2020-08-04 02:43:17,12.8,11.7,1010.4,NNE,22,2.9,3.2,70.1,0.0,,,0.0,0,0,n/a,2020-08-04T00:43:17Z
2020-08-04 02:49:17,12.8,11.6,1010.2,ENE,67,0,0,69.9,0.0,,,0.0,0,0,n/a,2020-08-04T00:49:17Z
2020-08-04 02:52:17,13.7,11.5,1010.4,ENE,67,3.9,3.9,69.7,0.0,,,0.0,0,0,n/a,2020-08-04T00:52:17Z
2020-08-04 02:58:17,13.6,11.5,1010.4,NE,34,2.9,3.2,69.5,0.0,,,0.0,0,0,n/a,2020-08-04T00:58:17Z
2020-08-04 03:04:22,14.2,11.4,1010.4,ENE,62,1,2.6,68.4,0.0,,,0.0,0,0,n/a,2020-08-04T01:04:22Z
2020-08-04 03:13:22,14.2,11.4,1010.7,NE,35,3,4.6,67.6,0.0,,,0.0,2,0,n/a,2020-08-04T01:13:22Z
2020-08-04 03:16:17,13.9,11.5,1010.7,ENE,67,0,0,67.7,0.0,,,0.0,0,0,n/a,2020-08-04T01:16:17Z
2020-08-04 03:25:17,14.3,11.4,1010.4,NNE,22,10.9,11,67.5,0.0,,,0.0,0,0,n/a,2020-08-04T01:25:17Z
2020-08-04 03:34:21,14.4,11.5,1010.4,NE,43,2,2.4,67.4,0.0,,,0.0,0,0,n/a,2020-08-04T01:34:21Z
2020-08-04 03:37:17,14.3,11.4,1010.4,NE,45,1.9,2,66.7,0.0,,,0.0,2,0,n/a,2020-08-04T01:37:17Z
2020-08-04 03:40:17,14.3,11.4,1010.4,North,0,5.8,5.8,66.9,0.0,,,0.0,2,0,n/a,2020-08-04T01:40:17Z
2020-08-04 03:49:17,14.3,11.4,1010.4,North,0,3.9,4.6,66.8,0.0,,,0.0,0,0,n/a,2020-08-04T01:49:17Z
2020-08-04 03:58:17,14.3,11.5,1010.7,NE,52,2.2,2.6,67.2,0.0,,,0.0,0,0,n/a,2020-08-04T01:58:17Z
2020-08-04 04:04:22,14.4,11.5,1010.7,ESE,112,0,0,66.4,0.0,,,0.0,0,0,n/a,2020-08-04T02:04:22Z
2020-08-04 04:07:17,14.2,11.3,1010.4,NNW,337,2.6,2.6,66.2,0.0,,,0.0,0,0,n/a,2020-08-04T02:07:17Z
2020-08-04 04:13:17,14.2,11.4,1010.7,North,0,2.6,2.6,66.3,0.0,,,0.0,2,0,n/a,2020-08-04T02:13:17Z
2020-08-04 04:19:17,13.8,11.5,1010.7,NW,315,1.6,3.3,66.6,0.0,,,0.0,0,0,n/a,2020-08-04T02:19:17Z
2020-08-04 04:28:17,13.9,11.6,1010.7,ENE,67,1.3,2.6,67.3,0.0,,,0.0,2,0,n/a,2020-08-04T02:28:17Z
2020-08-04 04:34:22,14.2,11.4,1010.7,NNE,22,2.2,2.6,66.9,0.0,,,0.0,0,0,n/a,2020-08-04T02:34:22Z
2020-08-04 04:40:17,13.6,11.5,1010.7,North,0,0,0,67,0.0,,,0.0,0,0,n/a,2020-08-04T02:40:17Z
2020-08-04 04:49:17,13.7,11.6,1010.7,ENE,67,0.7,1.3,67.3,0.0,,,0.0,0,0,n/a,2020-08-04T02:49:17Z
2020-08-04 04:52:17,13.5,11.5,1010.7,ENE,67,0,0,67.4,0.0,,,0.0,2,0,n/a,2020-08-04T02:52:17Z
2020-08-04 04:55:17,13.7,11.5,1010.7,NNW,337,3.9,3.9,67.4,0.0,,,0.0,0,0,n/a,2020-08-04T02:55:17Z
2020-08-04 05:04:22,13.5,11.5,1010.7,NW,315,0,0,67.3,0.0,,,0.0,0,0,n/a,2020-08-04T03:04:22Z
2020-08-04 05:07:22,13.4,11.4,1010.7,North,0,0,0,67.6,0.0,,,0.0,2,0,n/a,2020-08-04T03:07:22Z
2020-08-04 05:13:17,13.8,11.4,1011.0,North,0,1.8,5.3,67.5,0.0,,,0.0,2,0,n/a,2020-08-04T03:13:17Z
2020-08-04 05:19:22,13.7,11.5,1011.0,NNW,337,0,0,67.7,0.0,,,0.0,2,0,n/a,2020-08-04T03:19:22Z
2020-08-04 05:22:22,13.5,11.5,1011.0,NE,45,0.6,1.2,67.9,0.0,,,0.0,0,0,n/a,2020-08-04T03:22:22Z
2020-08-04 05:28:22,13.7,11.5,1011.2,North,7,4.8,7.1,68,0.0,,,0.0,2,0,n/a,2020-08-04T03:28:22Z
2020-08-04 05:34:22,13.8,11.6,1011.2,NNE,22,1.1,2.6,68.3,0.0,,,0.0,2,0,n/a,2020-08-04T03:34:22Z
2020-08-04 05:37:22,13.5,11.4,1011.2,NNW,337,0,0,67.6,0.0,,,0.0,2,0,n/a,2020-08-04T03:37:22Z
2020-08-04 05:43:22,13.5,11.5,1011.2,East,90,0.1,0.4,68,0.0,,,0.0,2,0,n/a,2020-08-04T03:43:22Z
2020-08-04 05:49:22,13.4,11.5,1011.2,North,0,0,0,68.1,0.0,,,0.0,4,0,n/a,2020-08-04T03:49:22Z
2020-08-04 05:52:22,13.3,11.5,1011.2,North,0,0,0,68.2,0.0,,,0.0,4,0,n/a,2020-08-04T03:52:22Z
2020-08-04 05:58:22,13.3,11.5,1011.2,NNE,13,0.4,1.3,68.4,0.0,,,0.0,4,0,n/a,2020-08-04T03:58:22Z
2020-08-04 06:04:23,13.2,11.6,1011.2,ENE,67,0,0,68.5,0.0,,,0.0,6,0,n/a,2020-08-04T04:04:23Z
2020-08-04 06:07:22,13.2,11.5,1011.2,NE,45,3.9,4.5,68.6,0.0,,,0.0,8,0,n/a,2020-08-04T04:07:22Z
2020-08-04 06:13:22,13.5,11.6,1011.5,ENE,60,0.9,2.6,69.1,0.0,,,0.0,10,0,n/a,2020-08-04T04:13:22Z
2020-08-04 06:19:22,13.6,11.6,1011.5,NNE,17,7.1,8.3,69.3,0.0,,,0.0,12,0,n/a,2020-08-04T04:19:22Z
2020-08-04 06:22:22,13.7,11.6,1011.8,NE,36,2.5,3.2,69.4,0.0,,,0.0,14,0,n/a,2020-08-04T04:22:22Z
2020-08-04 06:28:22,13.6,11.7,1011.8,NNE,25,4.6,5.9,69.4,0.0,,,0.0,18,0,n/a,2020-08-04T04:28:22Z
2020-08-04 06:34:22,13.7,11.6,1011.8,NNE,25,9.7,15.4,69.7,0.0,,,0.0,22,0,n/a,2020-08-04T04:34:22Z
2020-08-04 06:37:22,13.8,11.6,1011.8,NNE,22,6.6,6.8,69.6,0.0,,,0.0,24,0,n/a,2020-08-04T04:37:22Z
2020-08-04 06:43:22,13.8,11.8,1011.8,NNE,28,6.1,8.9,70,0.0,,,0.0,28,0,n/a,2020-08-04T04:43:22Z
2020-08-04 06:49:20,13.9,11.8,1011.8,NNE,15,4.7,8.5,70.1,0.0,,,0.0,32,0,n/a,2020-08-04T04:49:20Z
2020-08-04 06:52:22,13.9,11.7,1011.8,NNE,32,3,3.7,69.3,0.0,,,0.0,34,0,n/a,2020-08-04T04:52:22Z
2020-08-04 06:58:22,14,11.8,1011.8,NNE,29,6.2,9.2,69.9,0.0,,,0.0,38,0.1,n/a,2020-08-04T04:58:22Z
2020-08-04 07:04:22,14,11.9,1012.0,NNE,33,6.5,7.2,70,0.0,,,0.0,44,0.1,n/a,2020-08-04T05:04:22Z
2020-08-04 07:07:22,14.1,11.9,1012.0,North,11,7.1,7.2,70.3,0.0,,,0.0,46,0.1,n/a,2020-08-04T05:07:22Z
2020-08-04 07:13:22,14.2,12,1012.0,NNE,19,7.5,9.7,70.8,0.0,,,0.0,50,0.2,n/a,2020-08-04T05:13:22Z
2020-08-04 07:19:22,14.2,12.1,1012.0,NNE,17,6.4,7.8,70.2,0.0,,,0.0,50,0.2,n/a,2020-08-04T05:19:22Z
2020-08-04 07:22:22,14.3,12.2,1012.0,NNE,22,6.2,6.9,70.4,0.0,,,0.0,50,0.2,n/a,2020-08-04T05:22:22Z
2020-08-04 07:28:22,14.4,12.3,1012.0,NNE,22,5,6.6,70.6,0.0,,,0.0,52,0.2,n/a,2020-08-04T05:28:22Z
2020-08-04 07:34:22,14.4,12.4,1012.3,NE,41,5.8,7.4,70.8,0.0,,,0.0,54,0.2,n/a,2020-08-04T05:34:22Z